sensor_id;sensor_type;location;lat;lon;timestamp;pressure;altitude;pressure_sealevel;temperature;humidity
6833;BME280;3454;42.654;23.378;2023-04-24T00:00:16;64263.69;;;12.50;73.81
6833;BME280;3454;42.654;23.378;2023-04-24T00:02:43;64254.91;;;12.42;72.95
6833;BME280;3454;42.654;23.378;2023-04-24T00:05:16;64288.13;;;12.71;68.73
6833;BME280;3454;42.654;23.378;2023-04-24T00:07:43;64265.88;;;12.52;68.45
6833;BME280;3454;42.654;23.378;2023-04-24T00:10:09;64253.69;;;12.46;69.76
6833;BME280;3454;42.654;23.378;2023-04-24T00:12:35;64242.31;;;12.31;75.53
6833;BME280;3454;42.654;23.378;2023-04-24T00:15:00;64221.69;;;12.14;74.77
6833;BME280;3454;42.654;23.378;2023-04-24T00:17:26;64237.91;;;12.27;73.52
6833;BME280;3454;42.654;23.378;2023-04-24T00:19:52;64246.69;;;12.35;73.78
6833;BME280;3454;42.654;23.378;2023-04-24T00:22:24;64232.97;;;12.22;73.20
6833;BME280;3454;42.654;23.378;2023-04-24T00:24:49;64232.09;;;12.24;71.54
6833;BME280;3454;42.654;23.378;2023-04-24T00:27:15;64249.22;;;12.35;74.47
6833;BME280;3454;42.654;23.378;2023-04-24T00:29:40;64227.16;;;12.19;75.42
6833;BME280;3454;42.654;23.378;2023-04-24T00:32:06;64241.00;;;12.27;74.21
6833;BME280;3454;42.654;23.378;2023-04-24T00:34:31;64198.78;;;11.89;74.92
6833;BME280;3454;42.654;23.378;2023-04-24T00:36:57;64201.53;;;11.91;76.71
6833;BME280;3454;42.654;23.378;2023-04-24T00:39:23;64235.72;;;12.25;73.83
6833;BME280;3454;42.654;23.378;2023-04-24T00:41:49;64242.31;;;12.31;72.68
6833;BME280;3454;42.654;23.378;2023-04-24T00:44:16;64220.94;;;12.11;74.91
6833;BME280;3454;42.654;23.378;2023-04-24T00:46:42;64199.56;;;11.92;74.79
6833;BME280;3454;42.654;23.378;2023-04-24T00:49:08;64166.09;;;11.61;76.06
6833;BME280;3454;42.654;23.378;2023-04-24T00:51:34;64184.22;;;11.77;76.05
6833;BME280;3454;42.654;23.378;2023-04-24T00:54:00;64187.50;;;11.80;73.51
6833;BME280;3454;42.654;23.378;2023-04-24T00:56:26;64225.88;;;12.16;72.59
6833;BME280;3454;42.654;23.378;2023-04-24T00:58:53;64218.41;;;12.11;74.81
6833;BME280;3454;42.654;23.378;2023-04-24T01:01:22;64205.81;;;12.00;73.87
6833;BME280;3454;42.654;23.378;2023-04-24T01:03:50;64209.75;;;11.99;76.13
6833;BME280;3454;42.654;23.378;2023-04-24T01:06:16;64197.16;;;11.87;72.51
6833;BME280;3454;42.654;23.378;2023-04-24T01:08:43;64173.56;;;11.65;71.89
6833;BME280;3454;42.654;23.378;2023-04-24T01:11:10;64173.25;;;11.67;74.08
6833;BME280;3454;42.654;23.378;2023-04-24T01:13:35;64183.88;;;11.79;73.34
6833;BME280;3454;42.654;23.378;2023-04-24T01:16:01;64230.03;;;12.17;70.83
6833;BME280;3454;42.654;23.378;2023-04-24T01:18:27;64227.50;;;12.17;71.05
6833;BME280;3454;42.654;23.378;2023-04-24T01:20:56;64217.84;;;12.11;71.15
6833;BME280;3454;42.654;23.378;2023-04-24T01:23:22;64224.00;;;12.12;72.62
6833;BME280;3454;42.654;23.378;2023-04-24T01:25:49;64232.44;;;12.22;73.20
6833;BME280;3454;42.654;23.378;2023-04-24T01:28:15;64223.13;;;12.13;74.18
6833;BME280;3454;42.654;23.378;2023-04-24T01:30:41;64234.63;;;12.24;72.96
6833;BME280;3454;42.654;23.378;2023-04-24T01:33:06;64241.75;;;12.30;71.79
6833;BME280;3454;42.654;23.378;2023-04-24T01:35:32;64213.47;;;12.07;72.63
6833;BME280;3454;42.654;23.378;2023-04-24T01:37:57;64173.25;;;11.67;74.54
6833;BME280;3454;42.654;23.378;2023-04-24T01:40:23;64140.56;;;11.40;77.33
6833;BME280;3454;42.654;23.378;2023-04-24T01:42:48;64157.88;;;11.53;75.26
6833;BME280;3454;42.654;23.378;2023-04-24T01:45:14;64169.94;;;11.64;74.19
6833;BME280;3454;42.654;23.378;2023-04-24T01:47:40;64164.25;;;11.57;76.68
6833;BME280;3454;42.654;23.378;2023-04-24T01:50:07;64162.25;;;11.57;75.54
6833;BME280;3454;42.654;23.378;2023-04-24T01:52:32;64145.28;;;11.42;76.80
6833;BME280;3454;42.654;23.378;2023-04-24T01:55:02;64130.72;;;11.31;78.45
6833;BME280;3454;42.654;23.378;2023-04-24T01:57:29;64153.16;;;11.51;78.08
6833;BME280;3454;42.654;23.378;2023-04-24T01:59:55;64155.69;;;11.51;77.17
6833;BME280;3454;42.654;23.378;2023-04-24T02:02:21;64175.44;;;11.69;76.40
6833;BME280;3454;42.654;23.378;2023-04-24T02:04:49;64173.56;;;11.65;77.55
6833;BME280;3454;42.654;23.378;2023-04-24T02:07:14;64156.00;;;11.49;78.42
6833;BME280;3454;42.654;23.378;2023-04-24T02:09:40;64106.75;;;11.04;78.59
6833;BME280;3454;42.654;23.378;2023-04-24T02:12:05;64063.69;;;10.67;80.08
6833;BME280;3454;42.654;23.378;2023-04-24T02:14:31;64110.00;;;11.07;80.64
6833;BME280;3454;42.654;23.378;2023-04-24T02:16:57;64120.63;;;11.19;80.29
6833;BME280;3454;42.654;23.378;2023-04-24T02:19:23;64094.69;;;10.93;78.35
6833;BME280;3454;42.654;23.378;2023-04-24T02:21:48;64051.66;;;10.56;79.75
6833;BME280;3454;42.654;23.378;2023-04-24T02:24:13;64080.47;;;10.80;82.75
6833;BME280;3454;42.654;23.378;2023-04-24T02:26:39;64096.88;;;10.95;79.83
6833;BME280;3454;42.654;23.378;2023-04-24T02:29:04;64024.63;;;10.29;81.24
6833;BME280;3454;42.654;23.378;2023-04-24T02:31:30;63996.72;;;10.03;83.71
6833;BME280;3454;42.654;23.378;2023-04-24T02:33:55;64039.19;;;10.40;83.59
6833;BME280;3454;42.654;23.378;2023-04-24T02:36:21;64042.91;;;10.48;82.01
6833;BME280;3454;42.654;23.378;2023-04-24T02:38:46;64036.91;;;10.42;83.12
6833;BME280;3454;42.654;23.378;2023-04-24T02:41:12;64045.44;;;10.48;82.33
6833;BME280;3454;42.654;23.378;2023-04-24T02:43:37;64076.84;;;10.79;82.56
6833;BME280;3454;42.654;23.378;2023-04-24T02:46:02;64096.53;;;10.97;81.69
6833;BME280;3454;42.654;23.378;2023-04-24T02:48:28;64102.03;;;11.02;81.29
6833;BME280;3454;42.654;23.378;2023-04-24T02:50:53;64109.69;;;11.09;81.43
6833;BME280;3454;42.654;23.378;2023-04-24T02:53:19;64125.00;;;11.23;81.45
6833;BME280;3454;42.654;23.378;2023-04-24T02:55:44;64118.44;;;11.17;79.69
6833;BME280;3454;42.654;23.378;2023-04-24T02:58:11;64104.53;;;11.02;79.30
6833;BME280;3454;42.654;23.378;2023-04-24T03:00:38;64119.31;;;11.16;80.20
6833;BME280;3454;42.654;23.378;2023-04-24T03:03:03;64157.88;;;11.53;77.38
6833;BME280;3454;42.654;23.378;2023-04-24T03:05:29;64136.28;;;11.31;78.29
6833;BME280;3454;42.654;23.378;2023-04-24T03:07:56;64122.06;;;11.18;80.65
6833;BME280;3454;42.654;23.378;2023-04-24T03:10:21;64109.69;;;11.09;79.61
6833;BME280;3454;42.654;23.378;2023-04-24T03:12:50;64114.06;;;11.13;80.11
6833;BME280;3454;42.654;23.378;2023-04-24T03:15:16;64117.69;;;11.14;77.96
6833;BME280;3454;42.654;23.378;2023-04-24T03:17:42;64121.75;;;11.20;79.25
6833;BME280;3454;42.654;23.378;2023-04-24T03:20:08;64130.84;;;11.26;78.33
6833;BME280;3454;42.654;23.378;2023-04-24T03:22:34;64101.81;;;10.99;78.83
6833;BME280;3454;42.654;23.378;2023-04-24T03:25:00;64082.00;;;10.86;79.30
6833;BME280;3454;42.654;23.378;2023-04-24T03:27:25;64088.88;;;10.90;79.79
6833;BME280;3454;42.654;23.378;2023-04-24T03:29:51;64045.09;;;10.50;81.31
6833;BME280;3454;42.654;23.378;2023-04-24T03:32:23;64058.78;;;10.62;81.12
6833;BME280;3454;42.654;23.378;2023-04-24T03:34:49;64053.31;;;10.57;81.81
6833;BME280;3454;42.654;23.378;2023-04-24T03:37:16;64020.59;;;10.23;83.10
6833;BME280;3454;42.654;23.378;2023-04-24T03:39:41;64021.56;;;10.28;84.79
6833;BME280;3454;42.654;23.378;2023-04-24T03:42:07;64014.47;;;10.22;84.27
6833;BME280;3454;42.654;23.378;2023-04-24T03:44:34;64009.53;;;10.17;84.47
6833;BME280;3454;42.654;23.378;2023-04-24T03:46:59;63998.34;;;10.04;85.26
6833;BME280;3454;42.654;23.378;2023-04-24T03:49:25;63978.66;;;9.86;86.62
6833;BME280;3454;42.654;23.378;2023-04-24T03:51:50;63979.44;;;9.89;86.87
6833;BME280;3454;42.654;23.378;2023-04-24T03:54:17;64013.13;;;10.18;86.60
6833;BME280;3454;42.654;23.378;2023-04-24T03:56:43;64044.88;;;10.47;86.42
6833;BME280;3454;42.654;23.378;2023-04-24T03:59:08;64068.28;;;10.73;86.67
6833;BME280;3454;42.654;23.378;2023-04-24T04:01:34;64093.59;;;10.92;83.27
6833;BME280;3454;42.654;23.378;2023-04-24T04:04:03;64097.66;;;10.98;82.59
6833;BME280;3454;42.654;23.378;2023-04-24T04:06:28;64044.53;;;10.49;83.82
6833;BME280;3454;42.654;23.378;2023-04-24T04:09:01;64087.25;;;10.88;84.11
6833;BME280;3454;42.654;23.378;2023-04-24T04:11:27;64106.41;;;11.06;82.66
6833;BME280;3454;42.654;23.378;2023-04-24T04:13:52;64031.63;;;10.40;83.12
6833;BME280;3454;42.654;23.378;2023-04-24T04:16:18;64011.72;;;10.19;85.12
6833;BME280;3454;42.654;23.378;2023-04-24T04:18:44;64039.09;;;10.44;84.88
6833;BME280;3454;42.654;23.378;2023-04-24T04:21:16;64067.31;;;10.68;84.66
6833;BME280;3454;42.654;23.378;2023-04-24T04:23:41;64068.97;;;10.69;83.72
6833;BME280;3454;42.654;23.378;2023-04-24T04:26:07;64111.88;;;11.11;82.38
6833;BME280;3454;42.654;23.378;2023-04-24T04:28:33;64172.47;;;11.64;100.00
6833;BME280;3454;42.654;23.378;2023-04-24T04:30:58;64230.78;;;12.20;84.74
6833;BME280;3454;42.654;23.378;2023-04-24T04:33:24;64259.28;;;12.46;96.63
6833;BME280;3454;42.654;23.378;2023-04-24T04:35:51;64369.56;;;13.47;100.00
6833;BME280;3454;42.654;23.378;2023-04-24T04:38:22;64420.97;;;13.92;77.76
6833;BME280;3454;42.654;23.378;2023-04-24T04:40:48;64380.22;;;13.60;71.92
6833;BME280;3454;42.654;23.378;2023-04-24T04:43:13;64313.25;;;12.98;73.80
6833;BME280;3454;42.654;23.378;2023-04-24T04:45:40;64237.16;;;12.24;75.52
6833;BME280;3454;42.654;23.378;2023-04-24T04:48:06;64243.41;;;12.32;75.91
6833;BME280;3454;42.654;23.378;2023-04-24T04:50:34;64249.97;;;12.38;76.54
6833;BME280;3454;42.654;23.378;2023-04-24T04:53:00;64234.63;;;12.24;75.79
6833;BME280;3454;42.654;23.378;2023-04-24T04:55:25;64197.56;;;11.92;78.06
6833;BME280;3454;42.654;23.378;2023-04-24T04:57:51;64149.66;;;11.46;75.93
6833;BME280;3454;42.654;23.378;2023-04-24T05:00:17;64158.44;;;11.54;76.08
6833;BME280;3454;42.654;23.378;2023-04-24T05:02:43;64177.41;;;11.69;77.73
6833;BME280;3454;42.654;23.378;2023-04-24T05:05:08;64146.91;;;11.43;76.30
6833;BME280;3454;42.654;23.378;2023-04-24T05:07:34;64099.63;;;10.97;77.49
6833;BME280;3454;42.654;23.378;2023-04-24T05:10:00;64112.75;;;11.10;78.19
6833;BME280;3454;42.654;23.378;2023-04-24T05:12:25;64141.44;;;11.38;78.82
6833;BME280;3454;42.654;23.378;2023-04-24T05:14:52;64154.94;;;11.48;78.40
6833;BME280;3454;42.654;23.378;2023-04-24T05:17:17;64142.88;;;11.37;76.18
6833;BME280;3454;42.654;23.378;2023-04-24T05:19:42;64131.91;;;11.27;76.15
6833;BME280;3454;42.654;23.378;2023-04-24T05:22:08;64152.41;;;11.48;77.12
6833;BME280;3454;42.654;23.378;2023-04-24T05:24:35;64168.84;;;11.63;77.87
6833;BME280;3454;42.654;23.378;2023-04-24T05:27:01;64185.31;;;11.78;78.81
6833;BME280;3454;42.654;23.378;2023-04-24T05:29:28;64200.63;;;11.93;75.42
6833;BME280;3454;42.654;23.378;2023-04-24T05:31:55;64191.31;;;11.84;75.57
6833;BME280;3454;42.654;23.378;2023-04-24T05:34:21;64203.94;;;11.96;75.11
6833;BME280;3454;42.654;23.378;2023-04-24T05:36:46;64162.81;;;11.58;76.64
6833;BME280;3454;42.654;23.378;2023-04-24T05:39:13;64192.44;;;11.85;77.33
6833;BME280;3454;42.654;23.378;2023-04-24T05:41:38;64191.66;;;11.82;76.38
6833;BME280;3454;42.654;23.378;2023-04-24T05:44:04;64195.72;;;11.88;76.88
6833;BME280;3454;42.654;23.378;2023-04-24T05:46:30;64196.25;;;11.89;75.37
6833;BME280;3454;42.654;23.378;2023-04-24T05:48:55;64219.81;;;12.10;75.36
6833;BME280;3454;42.654;23.378;2023-04-24T05:51:21;64236.28;;;12.25;72.76
6833;BME280;3454;42.654;23.378;2023-04-24T05:53:46;64223.66;;;12.14;73.81
6833;BME280;3454;42.654;23.378;2023-04-24T05:56:11;64206.13;;;11.98;74.52
6833;BME280;3454;42.654;23.378;2023-04-24T05:58:37;64219.28;;;12.10;73.32
6833;BME280;3454;42.654;23.378;2023-04-24T06:01:03;64182.56;;;11.76;74.39
6833;BME280;3454;42.654;23.378;2023-04-24T06:03:28;64175.22;;;11.67;74.35
6833;BME280;3454;42.654;23.378;2023-04-24T06:05:54;64175.78;;;11.67;73.80
6833;BME280;3454;42.654;23.378;2023-04-24T06:08:19;64151.31;;;11.47;74.81
6833;BME280;3454;42.654;23.378;2023-04-24T06:10:45;64136.28;;;11.31;76.08
6833;BME280;3454;42.654;23.378;2023-04-24T06:13:11;64179.28;;;11.73;76.66
6833;BME280;3454;42.654;23.378;2023-04-24T06:15:37;64200.88;;;11.95;74.42
6833;BME280;3454;42.654;23.378;2023-04-24T06:18:03;64197.38;;;11.90;75.61
6833;BME280;3454;42.654;23.378;2023-04-24T06:20:28;64220.94;;;12.11;76.03
6833;BME280;3454;42.654;23.378;2023-04-24T06:22:54;64220.94;;;12.11;74.39
6833;BME280;3454;42.654;23.378;2023-04-24T06:25:20;64207.56;;;11.97;75.39
6833;BME280;3454;42.654;23.378;2023-04-24T06:27:45;64222.91;;;12.11;76.34
6833;BME280;3454;42.654;23.378;2023-04-24T06:30:11;64268.06;;;12.54;74.38
6833;BME280;3454;42.654;23.378;2023-04-24T06:32:37;64289.25;;;12.72;74.37
6833;BME280;3454;42.654;23.378;2023-04-24T06:35:03;64276.31;;;12.62;72.42
6833;BME280;3454;42.654;23.378;2023-04-24T06:37:29;64258.75;;;12.46;71.83
6833;BME280;3454;42.654;23.378;2023-04-24T06:39:54;64393.72;;;13.70;100.00
6833;BME280;3454;42.654;23.378;2023-04-24T06:42:20;64450.84;;;14.22;nan
6833;BME280;3454;42.654;23.378;2023-04-24T06:44:49;64503.28;;;14.72;97.54
6833;BME280;3454;42.654;23.378;2023-04-24T06:47:15;64650.13;;;16.07;91.23
6833;BME280;3454;42.654;23.378;2023-04-24T06:49:41;64865.84;;;18.01;80.41
6833;BME280;3454;42.654;23.378;2023-04-24T06:52:07;64945.84;;;18.74;64.48
6833;BME280;3454;42.654;23.378;2023-04-24T06:54:33;64959.09;;;18.86;67.86
6833;BME280;3454;42.654;23.378;2023-04-24T06:56:59;65018.00;;;19.45;62.29
6833;BME280;3454;42.654;23.378;2023-04-24T06:59:26;65028.84;;;19.52;60.23
6833;BME280;3454;42.654;23.378;2023-04-24T07:01:51;64996.44;;;19.25;60.32
6833;BME280;3454;42.654;23.378;2023-04-24T07:04:17;64930.41;;;18.60;51.34
6833;BME280;3454;42.654;23.378;2023-04-24T07:06:47;64743.94;;;16.95;53.90
6833;BME280;3454;42.654;23.378;2023-04-24T07:09:14;64643.84;;;15.98;55.37
6833;BME280;3454;42.654;23.378;2023-04-24T07:11:41;64527.81;;;14.92;59.58
6833;BME280;3454;42.654;23.378;2023-04-24T07:14:07;64507.13;;;14.76;61.81
6833;BME280;3454;42.654;23.378;2023-04-24T07:16:32;64510.97;;;14.79;62.29
6833;BME280;3454;42.654;23.378;2023-04-24T07:18:58;64431.84;;;14.07;64.28
6833;BME280;3454;42.654;23.378;2023-04-24T07:21:23;64417.88;;;13.92;64.41
6833;BME280;3454;42.654;23.378;2023-04-24T07:23:49;64473.94;;;14.43;64.59
6833;BME280;3454;42.654;23.378;2023-04-24T07:26:14;64451.19;;;14.20;64.80
6833;BME280;3454;42.654;23.378;2023-04-24T07:28:40;64480.88;;;14.47;65.37
6833;BME280;3454;42.654;23.378;2023-04-24T07:31:06;64501.44;;;14.68;63.38
6833;BME280;3454;42.654;23.378;2023-04-24T07:33:32;64535.50;;;14.99;62.06
6833;BME280;3454;42.654;23.378;2023-04-24T07:35:59;64508.03;;;14.74;63.30
6833;BME280;3454;42.654;23.378;2023-04-24T07:38:24;64525.06;;;14.90;64.82
6833;BME280;3454;42.654;23.378;2023-04-24T07:40:51;64542.09;;;15.05;64.72
6833;BME280;3454;42.654;23.378;2023-04-24T07:43:17;64533.84;;;14.98;63.89
6833;BME280;3454;42.654;23.378;2023-04-24T07:45:42;64552.00;;;15.14;63.53
6833;BME280;3454;42.654;23.378;2023-04-24T07:48:08;64543.19;;;15.06;64.23
6833;BME280;3454;42.654;23.378;2023-04-24T07:50:34;64562.09;;;15.26;62.92
6833;BME280;3454;42.654;23.378;2023-04-24T07:53:00;64595.88;;;15.59;60.61
6833;BME280;3454;42.654;23.378;2023-04-24T07:55:25;64607.75;;;15.68;62.20
6833;BME280;3454;42.654;23.378;2023-04-24T07:57:51;64613.25;;;15.73;60.06
6833;BME280;3454;42.654;23.378;2023-04-24T08:00:16;64634.16;;;15.92;59.93
6833;BME280;3454;42.654;23.378;2023-04-24T08:02:42;64627.88;;;15.84;60.48
6833;BME280;3454;42.654;23.378;2023-04-24T08:05:08;64645.16;;;16.02;60.53
6833;BME280;3454;42.654;23.378;2023-04-24T08:07:33;64646.81;;;16.04;59.14
6833;BME280;3454;42.654;23.378;2023-04-24T08:10:00;64651.75;;;16.08;59.95
6833;BME280;3454;42.654;23.378;2023-04-24T08:12:25;64658.69;;;16.12;61.12
6833;BME280;3454;42.654;23.378;2023-04-24T08:14:51;64662.75;;;16.18;61.62
6833;BME280;3454;42.654;23.378;2023-04-24T08:17:17;64660.56;;;16.16;59.30
6833;BME280;3454;42.654;23.378;2023-04-24T08:19:43;64673.22;;;16.28;60.01
6833;BME280;3454;42.654;23.378;2023-04-24T08:22:12;64702.41;;;16.54;60.15
6833;BME280;3454;42.654;23.378;2023-04-24T08:24:38;64691.94;;;16.45;60.43
6833;BME280;3454;42.654;23.378;2023-04-24T08:27:03;64708.47;;;16.60;61.36
6833;BME280;3454;42.654;23.378;2023-04-24T08:29:29;64720.94;;;16.69;60.36
6833;BME280;3454;42.654;23.378;2023-04-24T08:31:54;64749.22;;;16.97;60.51
6833;BME280;3454;42.654;23.378;2023-04-24T08:34:21;64790.88;;;17.33;58.93
6833;BME280;3454;42.654;23.378;2023-04-24T08:36:46;64772.91;;;17.19;58.88
6833;BME280;3454;42.654;23.378;2023-04-24T08:39:12;64766.09;;;17.10;59.43
6833;BME280;3454;42.654;23.378;2023-04-24T08:41:38;64728.50;;;16.81;58.88
6833;BME280;3454;42.654;23.378;2023-04-24T08:44:08;64781.72;;;17.27;58.33
6833;BME280;3454;42.654;23.378;2023-04-24T08:46:34;64781.72;;;17.27;56.57
6833;BME280;3454;42.654;23.378;2023-04-24T08:49:01;64810.19;;;17.50;55.81
6833;BME280;3454;42.654;23.378;2023-04-24T08:51:27;64825.81;;;17.67;55.08
6833;BME280;3454;42.654;23.378;2023-04-24T08:53:55;64848.00;;;17.83;57.37
6833;BME280;3454;42.654;23.378;2023-04-24T08:56:22;64838.28;;;17.76;57.84
6833;BME280;3454;42.654;23.378;2023-04-24T08:58:53;64824.72;;;17.66;55.30
6833;BME280;3454;42.654;23.378;2023-04-24T09:01:20;64854.81;;;17.91;56.59
6833;BME280;3454;42.654;23.378;2023-04-24T09:03:49;64884.25;;;18.20;56.21
6833;BME280;3454;42.654;23.378;2023-04-24T09:06:17;64923.22;;;18.54;53.84
6833;BME280;3454;42.654;23.378;2023-04-24T09:08:43;64920.66;;;18.54;52.30
6833;BME280;3454;42.654;23.378;2023-04-24T09:11:11;64918.47;;;18.52;51.44
6833;BME280;3454;42.654;23.378;2023-04-24T09:13:36;64944.38;;;18.75;53.93
6833;BME280;3454;42.654;23.378;2023-04-24T09:16:03;64983.00;;;19.10;51.76
6833;BME280;3454;42.654;23.378;2023-04-24T09:18:28;65029.59;;;19.55;51.87
6833;BME280;3454;42.654;23.378;2023-04-24T09:21:03;65028.50;;;19.54;49.13
6833;BME280;3454;42.654;23.378;2023-04-24T09:23:31;65079.63;;;19.98;49.50
6833;BME280;3454;42.654;23.378;2023-04-24T09:25:58;65047.06;;;19.69;49.81
6833;BME280;3454;42.654;23.378;2023-04-24T09:28:29;65082.41;;;20.01;50.88
6833;BME280;3454;42.654;23.378;2023-04-24T09:33:30;65031.94;;;19.53;50.36
6833;BME280;3454;42.654;23.378;2023-04-24T09:35:56;65044.84;;;19.67;50.70
6833;BME280;3454;42.654;23.378;2023-04-24T09:38:37;65067.84;;;19.85;50.19
6833;BME280;3454;42.654;23.378;2023-04-24T09:41:07;65059.75;;;19.80;49.03
6833;BME280;3454;42.654;23.378;2023-04-24T09:43:34;65066.38;;;19.86;47.16
6833;BME280;3454;42.654;23.378;2023-04-24T09:46:06;65087.03;;;20.07;47.93
6833;BME280;3454;42.654;23.378;2023-04-24T09:48:33;65120.53;;;20.36;48.46
6833;BME280;3454;42.654;23.378;2023-04-24T09:51:01;65129.38;;;20.44;47.66
6833;BME280;3454;42.654;23.378;2023-04-24T09:53:28;65161.06;;;20.75;47.22
6833;BME280;3454;42.654;23.378;2023-04-24T09:55:53;65201.44;;;21.12;45.86
6833;BME280;3454;42.654;23.378;2023-04-24T09:58:28;65163.63;;;20.75;47.26
6833;BME280;3454;42.654;23.378;2023-04-24T10:00:55;65179.09;;;20.89;44.87
6833;BME280;3454;42.654;23.378;2023-04-24T10:03:25;65218.03;;;21.27;44.92
6833;BME280;3454;42.654;23.378;2023-04-24T10:05:52;65244.38;;;21.48;44.52
6833;BME280;3454;42.654;23.378;2023-04-24T10:08:18;65185.72;;;20.95;44.55
6833;BME280;3454;42.654;23.378;2023-04-24T10:10:45;65225.22;;;21.33;42.67
6833;BME280;3454;42.654;23.378;2023-04-24T10:13:12;65248.44;;;21.54;44.26
6833;BME280;3454;42.654;23.378;2023-04-24T10:15:39;65301.38;;;22.00;43.26
6833;BME280;3454;42.654;23.378;2023-04-24T10:18:06;65366.53;;;22.64;43.66
6833;BME280;3454;42.654;23.378;2023-04-24T10:20:35;65356.34;;;22.52;41.86
6833;BME280;3454;42.654;23.378;2023-04-24T10:23:01;65375.00;;;22.67;42.64
6833;BME280;3454;42.654;23.378;2023-04-24T10:25:29;65376.84;;;22.71;42.11
6833;BME280;3454;42.654;23.378;2023-04-24T10:27:56;65332.56;;;22.31;41.88
6833;BME280;3454;42.654;23.378;2023-04-24T10:30:34;65414.31;;;23.03;44.27
6833;BME280;3454;42.654;23.378;2023-04-24T10:33:07;65474.34;;;23.60;40.63
6833;BME280;3454;42.654;23.378;2023-04-24T10:35:40;65469.38;;;23.55;39.30
6833;BME280;3454;42.654;23.378;2023-04-24T10:38:09;65465.13;;;23.54;38.39
6833;BME280;3454;42.654;23.378;2023-04-24T10:40:36;65434.81;;;23.21;37.25
6833;BME280;3454;42.654;23.378;2023-04-24T10:43:03;65429.81;;;23.17;37.28
6833;BME280;3454;42.654;23.378;2023-04-24T10:45:31;65432.78;;;23.22;37.67
6833;BME280;3454;42.654;23.378;2023-04-24T10:48:07;65434.81;;;23.21;37.67
6833;BME280;3454;42.654;23.378;2023-04-24T10:53:24;65363.34;;;22.56;39.37
6833;BME280;3454;42.654;23.378;2023-04-24T10:56:04;65307.47;;;22.06;38.92
6833;BME280;3454;42.654;23.378;2023-04-24T11:01:03;65345.09;;;22.40;38.53
6833;BME280;3454;42.654;23.378;2023-04-24T11:03:34;65335.88;;;22.34;37.71
6833;BME280;3454;42.654;23.378;2023-04-24T11:06:06;65325.91;;;22.25;37.69
6833;BME280;3454;42.654;23.378;2023-04-24T11:08:45;65251.00;;;21.54;36.85
6833;BME280;3454;42.654;23.378;2023-04-24T11:11:15;65206.22;;;21.14;37.18
6833;BME280;3454;42.654;23.378;2023-04-24T11:18:52;65137.09;;;20.51;38.64
6833;BME280;3454;42.654;23.378;2023-04-24T11:21:20;65118.34;;;20.34;38.56
6833;BME280;3454;42.654;23.378;2023-04-24T11:23:45;65103.59;;;20.23;39.57
6833;BME280;3454;42.654;23.378;2023-04-24T11:26:21;65071.34;;;19.91;39.90
6833;BME280;3454;42.654;23.378;2023-04-24T11:28:49;65053.13;;;19.74;39.64
6833;BME280;3454;42.654;23.378;2023-04-24T11:31:37;65023.31;;;19.47;40.71
6833;BME280;3454;42.654;23.378;2023-04-24T11:34:11;64967.00;;;18.96;43.29
6833;BME280;3454;42.654;23.378;2023-04-24T11:36:37;64909.09;;;18.43;46.04
6833;BME280;3454;42.654;23.378;2023-04-24T11:39:03;64865.50;;;18.03;50.30
6833;BME280;3454;42.654;23.378;2023-04-24T11:41:29;64858.13;;;17.94;50.03
6833;BME280;3454;42.654;23.378;2023-04-24T11:43:56;64874.13;;;18.09;47.94
6833;BME280;3454;42.654;23.378;2023-04-24T11:46:22;64868.28;;;18.06;47.96
6833;BME280;3454;42.654;23.378;2023-04-24T11:48:48;64872.81;;;18.05;47.01
6833;BME280;3454;42.654;23.378;2023-04-24T11:51:14;64858.69;;;17.95;48.00
6833;BME280;3454;42.654;23.378;2023-04-24T11:53:39;64847.31;;;17.87;50.01
6833;BME280;3454;42.654;23.378;2023-04-24T11:56:05;64825.63;;;17.65;52.75
6833;BME280;3454;42.654;23.378;2023-04-24T11:58:40;64842.69;;;17.80;51.69
6833;BME280;3454;42.654;23.378;2023-04-24T12:01:05;64861.63;;;18.00;48.54
6833;BME280;3454;42.654;23.378;2023-04-24T12:03:31;64876.31;;;18.11;48.63
6833;BME280;3454;42.654;23.378;2023-04-24T12:06:10;64891.41;;;18.27;46.45
6833;BME280;3454;42.654;23.378;2023-04-24T12:08:37;64897.81;;;18.30;46.40
6833;BME280;3454;42.654;23.378;2023-04-24T12:11:06;64905.22;;;18.39;46.64
6833;BME280;3454;42.654;23.378;2023-04-24T12:13:33;64917.34;;;18.51;46.17
6833;BME280;3454;42.654;23.378;2023-04-24T12:16:01;64930.94;;;18.61;46.62
6833;BME280;3454;42.654;23.378;2023-04-24T12:18:27;64929.84;;;18.60;46.47
6833;BME280;3454;42.654;23.378;2023-04-24T12:20:52;64933.00;;;18.67;46.28
6833;BME280;3454;42.654;23.378;2023-04-24T12:23:33;64922.31;;;18.55;47.52
6833;BME280;3454;42.654;23.378;2023-04-24T12:26:03;64911.84;;;18.46;49.25
6833;BME280;3454;42.654;23.378;2023-04-24T12:28:35;64901.69;;;18.34;49.65
6833;BME280;3454;42.654;23.378;2023-04-24T12:31:01;64854.81;;;17.91;51.43
6833;BME280;3454;42.654;23.378;2023-04-24T12:33:27;64840.69;;;17.81;51.58
6833;BME280;3454;42.654;23.378;2023-04-24T12:35:53;64839.94;;;17.78;51.37
6833;BME280;3454;42.654;23.378;2023-04-24T12:38:22;64808.84;;;17.47;51.85
6833;BME280;3454;42.654;23.378;2023-04-24T12:41:07;64799.88;;;17.43;52.43
6833;BME280;3454;42.654;23.378;2023-04-24T12:43:33;64786.47;;;17.29;52.94
6833;BME280;3454;42.654;23.378;2023-04-24T12:45:59;64769.94;;;17.14;53.39
6833;BME280;3454;42.654;23.378;2023-04-24T12:48:26;64782.59;;;17.25;52.95
6833;BME280;3454;42.654;23.378;2023-04-24T12:50:52;64785.91;;;17.28;53.09
6833;BME280;3454;42.654;23.378;2023-04-24T12:53:17;64792.41;;;17.39;51.00
6833;BME280;3454;42.654;23.378;2023-04-24T12:55:43;64810.94;;;17.53;50.93
6833;BME280;3454;42.654;23.378;2023-04-24T12:58:10;64818.09;;;17.60;50.78
6833;BME280;3454;42.654;23.378;2023-04-24T13:00:35;64848.00;;;17.83;50.26
6833;BME280;3454;42.654;23.378;2023-04-24T13:03:01;64850.41;;;17.87;49.14
6833;BME280;3454;42.654;23.378;2023-04-24T13:05:27;64847.88;;;17.87;49.75
6833;BME280;3454;42.654;23.378;2023-04-24T13:07:53;64848.97;;;17.88;50.25
6833;BME280;3454;42.654;23.378;2023-04-24T13:10:18;64863.66;;;17.99;51.20
6833;BME280;3454;42.654;23.378;2023-04-24T13:12:44;64841.59;;;17.79;52.26
6833;BME280;3454;42.654;23.378;2023-04-24T13:15:11;64838.84;;;17.77;52.52
6833;BME280;3454;42.654;23.378;2023-04-24T13:17:37;64841.03;;;17.79;52.62
6833;BME280;3454;42.654;23.378;2023-04-24T13:20:03;64876.13;;;18.08;52.85